Time;durP1;ratioP1;P1;durP2;ratioP2;P2;SDS_P1;SDS_P2;PMS_P1;PMS_P2;Temp;Humidity;BMP_temperature;BMP_pressure;BME280_temperature;BME280_humidity;BME280_pressure;Samples;Min_cycle;Max_cycle;Signal;HPM_P1;HPM_P2
2022/03/27 00:01:18;;;;;;;2.05;1.85;;;21.00;34.80;;;;;;5094733;28;20052;-78
2022/03/27 00:03:44;;;;;;;1.80;1.70;;;21.00;34.80;;;;;;5076523;28;20052;-78
2022/03/27 00:06:10;;;;;;;2.60;1.92;;;21.00;34.70;;;;;;5094609;28;20051;-78
2022/03/27 00:08:35;;;;;;;1.92;1.83;;;21.00;34.70;;;;;;5094661;28;20040;-78
2022/03/27 00:13:46;;;;;;;2.10;1.90;;;21.00;34.70;;;;;;5076359;28;20052;-78
2022/03/27 00:16:12;;;;;;;1.90;1.80;;;21.00;34.70;;;;;;5076324;28;20047;-78
2022/03/27 00:18:38;;;;;;;2.05;1.85;;;21.00;34.70;;;;;;5094658;28;20408;-78
2022/03/27 00:21:08;;;;;;;2.15;1.77;;;21.00;34.70;;;;;;5094259;28;20084;-78
2022/03/27 00:23:34;;;;;;;1.77;1.67;;;21.00;34.70;;;;;;5076534;28;20142;-79
2022/03/27 00:26:00;;;;;;;2.28;2.08;;;21.00;35.20;;;;;;5094382;28;20479;-78
2022/03/27 00:28:31;;;;;;;1.58;1.48;;;21.00;34.70;;;;;;5094234;28;20052;-78
2022/03/27 00:31:00;;;;;;;1.85;1.75;;;21.00;34.70;;;;;;5094346;28;20589;-78
2022/03/27 00:33:28;;;;;;;2.00;1.90;;;21.00;34.70;;;;;;5074384;28;20124;-78
2022/03/27 00:35:56;;;;;;;1.90;1.70;;;21.00;34.70;;;;;;5094377;28;20464;-78
2022/03/27 00:38:25;;;;;;;2.05;1.60;;;21.00;34.70;;;;;;5092720;28;20503;-78
2022/03/27 00:40:53;;;;;;;1.60;1.50;;;21.00;34.70;;;;;;5094496;28;20048;-78
2022/03/27 00:43:19;;;;;;;1.73;1.63;;;21.00;34.70;;;;;;5094088;28;20047;-78
2022/03/27 00:45:46;;;;;;;1.55;1.45;;;21.10;34.70;;;;;;5074368;28;20072;-78
2022/03/27 00:48:15;;;;;;;2.08;1.70;;;21.10;34.80;;;;;;5076122;28;20477;-78
2022/03/27 00:50:41;;;;;;;1.85;1.75;;;21.00;34.70;;;;;;5075278;28;20048;-78
2022/03/27 00:53:08;;;;;;;1.85;1.75;;;21.00;34.70;;;;;;5093631;28;20491;-78
2022/03/27 00:55:34;;;;;;;1.67;1.58;;;21.00;34.70;;;;;;5075587;28;20404;-78
2022/03/27 00:58:01;;;;;;;2.00;1.80;;;21.00;34.70;;;;;;5075511;28;20048;-78
2022/03/27 01:00:41;;;;;;;1.60;1.50;;;21.00;34.70;;;;;;5093428;28;20500;-78
2022/03/27 01:03:11;;;;;;;1.60;1.50;;;21.00;34.70;;;;;;5093559;28;20480;-78
2022/03/27 01:05:37;;;;;;;1.92;1.83;;;21.00;34.70;;;;;;5075325;28;20305;-78
2022/03/27 01:08:09;;;;;;;2.08;1.90;;;21.00;34.70;;;;;;5093179;28;20447;-78
2022/03/27 01:10:35;;;;;;;2.10;1.90;;;21.00;34.70;;;;;;5093508;28;20052;-78
2022/03/27 01:13:07;;;;;;;1.70;1.48;;;21.00;34.70;;;;;;5073853;28;20052;-78
2022/03/27 01:15:57;;;;;;;1.77;1.55;;;21.00;34.70;;;;;;5093745;28;20051;-78
2022/03/27 01:18:26;;;;;;;1.50;1.40;;;21.00;34.70;;;;;;5092131;28;20047;-78
2022/03/27 01:20:54;;;;;;;2.47;1.88;;;21.00;34.70;;;;;;5093745;28;20484;-79
2022/03/27 01:23:20;;;;;;;1.75;1.60;;;21.00;34.70;;;;;;5074166;28;20135;-78
2022/03/27 01:25:46;;;;;;;1.70;1.60;;;21.00;34.70;;;;;;5073606;28;20132;-78
2022/03/27 01:28:14;;;;;;;1.60;1.50;;;21.00;34.70;;;;;;5092944;28;20079;-79
2022/03/27 01:30:40;;;;;;;1.75;1.65;;;21.00;34.70;;;;;;5058994;28;20063;-78
2022/03/27 01:33:09;;;;;;;1.88;1.60;;;21.00;34.70;;;;;;5092956;28;20051;-78
2022/03/27 01:35:35;;;;;;;1.83;1.73;;;21.00;34.70;;;;;;5056230;28;20485;-78
2022/03/27 01:38:01;;;;;;;1.83;1.73;;;21.00;34.70;;;;;;5074730;28;20048;-78
2022/03/27 01:40:27;;;;;;;1.95;1.83;;;21.00;34.70;;;;;;5092889;28;20052;-78
2022/03/27 01:42:55;;;;;;;2.17;1.98;;;21.00;34.70;;;;;;5093123;28;20052;-78
2022/03/27 01:45:24;;;;;;;1.80;1.70;;;21.00;34.70;;;;;;5093110;28;20428;-78
2022/03/27 01:47:50;;;;;;;1.67;1.58;;;21.00;34.70;;;;;;5093133;28;20768;-78
2022/03/27 01:50:15;;;;;;;2.13;1.98;;;21.00;34.70;;;;;;5073300;28;20057;-78
2022/03/27 01:52:41;;;;;;;1.70;1.55;;;21.00;34.70;;;;;;5093653;28;20059;-78
2022/03/27 01:55:09;;;;;;;1.67;1.58;;;21.00;34.70;;;;;;5057975;28;20050;-78
2022/03/27 01:57:34;;;;;;;1.92;1.77;;;21.00;35.20;;;;;;5074555;28;20105;-78
2022/03/27 02:00:00;;;;;;;1.50;1.40;;;21.00;34.70;;;;;;5074774;28;20052;-78
2022/03/27 02:02:26;;;;;;;1.60;1.50;;;21.00;34.70;;;;;;5092918;28;20055;-78
2022/03/27 02:04:53;;;;;;;2.00;1.80;;;21.00;34.70;;;;;;5057997;28;20083;-78
2022/03/27 02:07:22;;;;;;;1.50;1.40;;;21.00;34.70;;;;;;5073666;28;20135;-78
2022/03/27 02:09:49;;;;;;;1.65;1.55;;;21.00;34.70;;;;;;5092691;28;20101;-78
2022/03/27 02:12:14;;;;;;;1.70;1.60;;;21.00;34.70;;;;;;5074665;28;20075;-78
2022/03/27 02:14:40;;;;;;;1.88;1.77;;;21.00;34.70;;;;;;5092607;28;20086;-78
2022/03/27 02:17:07;;;;;;;2.00;1.80;;;21.00;34.70;;;;;;5092618;28;20444;-78
2022/03/27 02:19:34;;;;;;;1.98;1.80;;;21.00;34.70;;;;;;5092704;28;20056;-78
2022/03/27 02:21:59;;;;;;;1.73;1.63;;;21.00;34.70;;;;;;5092690;28;20100;-78
2022/03/27 02:24:25;;;;;;;1.75;1.65;;;21.00;34.70;;;;;;5092476;28;20056;-78
2022/03/27 02:26:50;;;;;;;1.83;1.70;;;21.10;34.80;;;;;;5074410;28;20055;-78
2022/03/27 02:29:17;;;;;;;1.58;1.48;;;21.00;34.70;;;;;;5074999;28;20052;-78
2022/03/27 02:31:44;;;;;;;1.45;1.35;;;21.00;34.70;;;;;;5092403;28;20048;-78
2022/03/27 02:34:10;;;;;;;2.10;1.85;;;21.00;35.30;;;;;;5074413;28;20484;-78
2022/03/27 02:36:35;;;;;;;1.50;1.40;;;21.00;34.80;;;;;;5092310;28;20134;-78
2022/03/27 02:39:02;;;;;;;1.55;1.45;;;21.00;34.70;;;;;;5092293;28;20075;-78
2022/03/27 02:41:27;;;;;;;1.70;1.60;;;21.00;34.70;;;;;;5074075;28;20047;-78
2022/03/27 02:43:53;;;;;;;1.63;1.52;;;21.00;34.80;;;;;;5092563;28;20373;-78
2022/03/27 02:46:19;;;;;;;1.67;1.58;;;21.00;34.70;;;;;;5073835;28;20048;-78
2022/03/27 02:48:44;;;;;;;1.83;1.60;;;21.00;34.70;;;;;;5092339;28;20047;-78
2022/03/27 02:51:10;;;;;;;1.75;1.65;;;21.00;34.80;;;;;;5092205;28;20148;-78
2022/03/27 02:53:36;;;;;;;1.52;1.42;;;21.00;34.80;;;;;;5092554;28;20051;-78
2022/03/27 02:56:04;;;;;;;1.67;1.50;;;21.00;34.80;;;;;;5092454;28;20048;-78
2022/03/27 02:58:30;;;;;;;1.80;1.70;;;21.00;35.40;;;;;;5091914;28;20063;-78
2022/03/27 03:00:56;;;;;;;1.70;1.52;;;21.00;34.80;;;;;;5093111;28;20043;-78
2022/03/27 03:03:24;;;;;;;1.55;1.45;;;21.00;34.80;;;;;;5077761;28;20048;-78
2022/03/27 03:05:50;;;;;;;1.58;1.48;;;21.00;34.80;;;;;;5095635;28;20044;-78
2022/03/27 03:08:18;;;;;;;1.88;1.77;;;21.00;34.80;;;;;;5095175;28;20519;-78
2022/03/27 03:10:44;;;;;;;1.58;1.48;;;21.00;34.80;;;;;;5076153;28;20389;-78
2022/03/27 03:13:10;;;;;;;1.65;1.52;;;21.00;34.80;;;;;;5075683;28;20061;-78
2022/03/27 03:15:37;;;;;;;1.70;1.60;;;21.00;34.80;;;;;;5076690;28;20060;-78
2022/03/27 03:18:04;;;;;;;1.60;1.50;;;21.00;34.80;;;;;;5094868;28;20052;-78
2022/03/27 03:20:30;;;;;;;1.70;1.60;;;21.00;34.80;;;;;;5095340;28;20052;-78
2022/03/27 03:22:56;;;;;;;1.67;1.58;;;21.00;34.80;;;;;;5095448;28;20492;-78
2022/03/27 03:25:23;;;;;;;1.65;1.55;;;21.00;34.80;;;;;;5076409;28;20052;-78
2022/03/27 03:27:49;;;;;;;1.83;1.73;;;21.00;34.80;;;;;;5077007;28;20481;-78
2022/03/27 03:30:16;;;;;;;1.70;1.60;;;21.00;34.80;;;;;;5076960;28;20058;-78
2022/03/27 03:32:42;;;;;;;2.00;1.60;;;21.00;34.80;;;;;;5076882;28;20059;-78
2022/03/27 03:35:09;;;;;;;1.52;1.42;;;21.00;34.80;;;;;;5076930;28;20063;-78
2022/03/27 03:37:35;;;;;;;1.60;1.50;;;21.00;34.70;;;;;;5059002;28;20080;-78
2022/03/27 03:40:02;;;;;;;1.60;1.50;;;21.00;34.70;;;;;;5095127;28;20446;-78
2022/03/27 03:42:28;;;;;;;1.95;1.70;;;21.00;35.30;;;;;;5095046;28;20118;-78
2022/03/27 03:44:54;;;;;;;1.75;1.63;;;21.00;34.70;;;;;;5095279;28;20060;-78
2022/03/27 03:47:20;;;;;;;1.90;1.67;;;21.00;34.80;;;;;;5094721;28;20488;-78
2022/03/27 03:49:46;;;;;;;1.45;1.35;;;21.00;34.80;;;;;;5094927;28;20051;-78
2022/03/27 03:52:11;;;;;;;2.00;1.83;;;21.00;34.70;;;;;;5094934;28;20492;-78
2022/03/27 03:54:37;;;;;;;1.50;1.40;;;21.00;34.70;;;;;;5094940;28;20051;-78
2022/03/27 03:57:05;;;;;;;1.70;1.60;;;21.00;34.80;;;;;;5094523;28;20040;-78
2022/03/27 03:59:33;;;;;;;1.48;1.38;;;21.00;34.70;;;;;;5094811;28;20055;-78
2022/03/27 04:01:59;;;;;;;1.92;1.70;;;21.00;34.80;;;;;;5094726;28;20063;-78
2022/03/27 04:04:25;;;;;;;1.88;1.70;;;21.00;34.70;;;;;;5094640;28;20059;-78
2022/03/27 04:06:51;;;;;;;1.60;1.50;;;21.00;34.70;;;;;;5093284;28;20396;-78
2022/03/27 04:09:17;;;;;;;1.98;1.77;;;21.00;34.70;;;;;;5094929;28;20048;-78
2022/03/27 04:11:43;;;;;;;2.13;1.67;;;21.00;34.70;;;;;;5094443;28;20051;-78
2022/03/27 04:14:09;;;;;;;1.70;1.60;;;21.00;34.70;;;;;;5094946;28;20052;-78
2022/03/27 04:16:34;;;;;;;1.70;1.60;;;21.00;34.70;;;;;;5074232;28;20194;-78
2022/03/27 04:19:00;;;;;;;1.90;1.40;;;21.00;34.70;;;;;;5094499;28;20143;-78
2022/03/27 04:21:26;;;;;;;1.70;1.60;;;21.00;34.70;;;;;;5076226;28;20422;-79
2022/03/27 04:23:52;;;;;;;1.60;1.50;;;21.00;34.70;;;;;;5094410;28;20060;-78
2022/03/27 04:26:18;;;;;;;2.33;1.40;;;21.00;34.70;;;;;;5076073;28;20048;-78
2022/03/27 04:28:45;;;;;;;1.60;1.50;;;21.00;34.70;;;;;;5094237;28;20101;-78
2022/03/27 04:31:10;;;;;;;1.60;1.50;;;21.00;34.70;;;;;;5094676;28;20101;-78
2022/03/27 04:33:36;;;;;;;1.92;1.50;;;21.00;34.70;;;;;;5076105;28;20059;-78
2022/03/27 04:36:06;;;;;;;1.40;1.30;;;21.00;34.70;;;;;;5076012;28;20056;-78
2022/03/27 04:38:31;;;;;;;1.73;1.63;;;21.00;34.70;;;;;;5093961;28;20060;-78
2022/03/27 04:40:57;;;;;;;1.52;1.42;;;21.00;34.70;;;;;;5075987;28;20055;-78
2022/03/27 04:43:25;;;;;;;1.50;1.40;;;21.00;34.80;;;;;;5076498;28;20102;-78
2022/03/27 04:45:51;;;;;;;1.75;1.55;;;21.00;34.80;;;;;;5075954;28;20052;-78
2022/03/27 04:48:17;;;;;;;2.22;1.60;;;21.00;34.70;;;;;;5093763;28;20056;-78
2022/03/27 04:50:42;;;;;;;1.52;1.42;;;21.00;34.70;;;;;;5074179;28;20060;-78
2022/03/27 04:53:10;;;;;;;1.70;1.60;;;21.00;34.70;;;;;;5093795;28;20055;-78
2022/03/27 04:55:35;;;;;;;2.00;1.70;;;21.00;34.70;;;;;;5075013;28;20052;-78
2022/03/27 04:58:01;;;;;;;1.58;1.48;;;21.00;34.70;;;;;;5093693;28;20055;-78
2022/03/27 05:00:26;;;;;;;1.80;1.40;;;21.00;34.70;;;;;;5075576;28;20063;-78
2022/03/27 05:02:52;;;;;;;1.42;1.33;;;21.00;34.70;;;;;;5093850;28;20059;-78
2022/03/27 05:05:17;;;;;;;1.65;1.55;;;21.00;34.70;;;;;;5093729;28;20137;-78
2022/03/27 05:07:44;;;;;;;1.50;1.40;;;21.00;34.70;;;;;;5075225;28;20063;-78
2022/03/27 05:10:12;;;;;;;1.52;1.42;;;21.00;34.70;;;;;;5093539;28;20082;-78
2022/03/27 05:12:37;;;;;;;1.65;1.55;;;21.00;34.70;;;;;;5093641;28;20059;-78
2022/03/27 05:15:03;;;;;;;1.45;1.35;;;21.00;34.70;;;;;;5093572;28;20060;-79
2022/03/27 05:17:29;;;;;;;1.58;1.48;;;21.10;34.70;;;;;;5093505;28;20048;-78
2022/03/27 05:19:55;;;;;;;1.27;1.17;;;21.10;34.70;;;;;;5093307;28;20139;-78
2022/03/27 05:22:21;;;;;;;1.67;1.58;;;21.10;34.70;;;;;;5093458;28;20051;-78
2022/03/27 05:24:47;;;;;;;1.30;1.20;;;21.10;34.70;;;;;;5092776;28;20510;-78
2022/03/27 05:27:16;;;;;;;1.50;1.40;;;21.10;34.70;;;;;;5093664;28;20052;-78
2022/03/27 05:29:42;;;;;;;2.63;1.80;;;21.10;34.70;;;;;;5093385;28;20063;-78
2022/03/27 05:32:08;;;;;;;1.58;1.48;;;21.10;34.70;;;;;;5058358;28;20048;-78
2022/03/27 05:34:34;;;;;;;2.20;1.40;;;21.10;34.60;;;;;;5073334;28;20064;-78
2022/03/27 05:36:59;;;;;;;1.95;1.60;;;21.10;34.60;;;;;;5075306;28;20128;-78
2022/03/27 05:39:25;;;;;;;1.65;1.40;;;21.10;34.60;;;;;;5093470;28;20052;-78
2022/03/27 05:41:50;;;;;;;1.50;1.40;;;21.10;34.60;;;;;;5093232;28;20071;-78
2022/03/27 05:44:16;;;;;;;1.50;1.40;;;21.10;34.60;;;;;;5093152;28;20051;-78
2022/03/27 05:46:41;;;;;;;1.77;1.45;;;21.10;34.60;;;;;;5093169;28;20097;-78
2022/03/27 05:49:07;;;;;;;1.65;1.42;;;21.10;35.20;;;;;;5092994;28;20070;-78
2022/03/27 05:51:33;;;;;;;2.30;1.55;;;21.10;34.60;;;;;;5074924;28;20047;-78
2022/03/27 05:53:58;;;;;;;1.92;1.33;;;21.10;34.50;;;;;;5092980;28;20048;-78
2022/03/27 05:56:24;;;;;;;2.30;1.65;;;21.20;34.60;;;;;;5092843;28;20174;-78
2022/03/27 05:58:49;;;;;;;1.33;1.23;;;21.20;34.50;;;;;;5092868;28;20059;-78
2022/03/27 06:01:15;;;;;;;1.33;1.23;;;21.20;34.50;;;;;;5092991;28;20105;-78
2022/03/27 06:03:41;;;;;;;1.80;1.50;;;21.20;34.50;;;;;;5056772;28;20106;-78
2022/03/27 06:06:07;;;;;;;1.48;1.30;;;21.30;34.50;;;;;;5074582;28;20135;-78
2022/03/27 06:08:33;;;;;;;1.73;1.52;;;21.30;34.50;;;;;;5074186;28;20083;-78
2022/03/27 06:10:58;;;;;;;2.35;1.60;;;21.30;34.40;;;;;;5092795;28;20109;-78
2022/03/27 06:13:25;;;;;;;1.40;1.30;;;21.30;34.30;;;;;;5092685;28;20056;-78
2022/03/27 06:15:51;;;;;;;1.40;1.30;;;21.30;34.30;;;;;;5092884;28;20051;-78
2022/03/27 06:18:17;;;;;;;1.50;1.30;;;21.40;34.30;;;;;;5093107;28;20056;-78
2022/03/27 06:20:43;;;;;;;1.98;1.50;;;21.30;34.30;;;;;;5073178;28;20144;-78
2022/03/27 06:23:09;;;;;;;1.75;1.13;;;21.40;34.30;;;;;;5092642;28;20080;-78
2022/03/27 06:25:35;;;;;;;1.80;1.40;;;21.40;34.30;;;;;;5057036;28;20429;-78
2022/03/27 06:28:01;;;;;;;1.50;1.40;;;21.30;34.20;;;;;;5092405;28;20086;-78
2022/03/27 06:30:29;;;;;;;1.35;1.25;;;21.30;34.20;;;;;;5074451;28;20052;-78
2022/03/27 06:32:55;;;;;;;1.70;1.42;;;21.40;34.30;;;;;;5057435;28;20048;-78
2022/03/27 06:35:22;;;;;;;1.52;1.42;;;21.40;34.30;;;;;;5075112;28;20056;-78
2022/03/27 06:37:49;;;;;;;1.65;1.55;;;21.40;34.20;;;;;;5095796;28;20063;-78
2022/03/27 06:40:15;;;;;;;1.77;1.60;;;21.50;34.20;;;;;;5077936;28;20056;-78
2022/03/27 06:42:42;;;;;;;1.50;1.38;;;21.50;34.10;;;;;;5095945;28;20101;-78
2022/03/27 06:45:10;;;;;;;1.52;1.42;;;21.50;34.00;;;;;;5095961;28;20488;-78
2022/03/27 06:47:36;;;;;;;2.78;2.00;;;21.60;33.90;;;;;;5077779;28;20051;-78
2022/03/27 06:50:04;;;;;;;1.30;1.20;;;21.70;33.90;;;;;;5077612;28;20193;-78
2022/03/27 06:52:31;;;;;;;1.60;1.38;;;21.70;33.90;;;;;;5095859;28;20048;-78
2022/03/27 06:54:56;;;;;;;1.77;1.40;;;21.70;33.80;;;;;;5095901;28;20507;-78
2022/03/27 06:57:22;;;;;;;1.73;1.63;;;21.80;33.80;;;;;;5077529;28;20118;-78
2022/03/27 07:05:17;;;;;;;1.33;1.23;;;22.00;33.40;;;;;;5077944;28;20134;-78
2022/03/27 07:07:43;;;;;;;2.08;1.70;;;22.10;33.30;;;;;;5095418;28;20083;-78
2022/03/27 07:10:10;;;;;;;1.45;1.30;;;22.20;33.30;;;;;;5095923;28;20055;-78
2022/03/27 07:12:36;;;;;;;1.73;1.48;;;22.20;33.20;;;;;;5077284;28;20052;-78
2022/03/27 07:15:02;;;;;;;1.40;1.30;;;22.20;33.20;;;;;;5095844;28;20067;-78
2022/03/27 07:17:28;;;;;;;1.70;1.60;;;22.20;33.20;;;;;;5095500;28;20079;-78
2022/03/27 07:19:53;;;;;;;1.55;1.30;;;22.10;33.20;;;;;;5095752;28;20055;-78
2022/03/27 07:22:19;;;;;;;1.77;1.52;;;22.10;33.30;;;;;;5095534;28;20047;-79
2022/03/27 07:24:45;;;;;;;2.08;1.42;;;22.00;33.40;;;;;;5095324;28;20136;-78
2022/03/27 07:27:12;;;;;;;1.50;1.40;;;21.90;33.40;;;;;;5095611;28;20483;-79
2022/03/27 07:29:38;;;;;;;1.35;1.25;;;21.90;33.60;;;;;;5095228;28;20077;-78
2022/03/27 07:32:07;;;;;;;1.60;1.40;;;21.90;33.50;;;;;;5095306;28;20106;-78
2022/03/27 07:34:34;;;;;;;1.30;1.20;;;21.90;33.60;;;;;;5095184;28;20048;-78
2022/03/27 07:37:01;;;;;;;1.45;1.30;;;21.80;33.60;;;;;;5076889;28;20389;-78
2022/03/27 07:39:26;;;;;;;1.58;1.48;;;21.80;33.70;;;;;;5076679;28;20535;-78
2022/03/27 07:41:52;;;;;;;1.63;1.20;;;21.80;33.70;;;;;;5095086;28;20137;-78
2022/03/27 07:44:17;;;;;;;1.98;1.33;;;21.80;33.70;;;;;;5077049;28;20056;-78
2022/03/27 07:46:44;;;;;;;1.70;1.27;;;21.80;33.70;;;;;;5075299;28;20055;-78
2022/03/27 07:49:10;;;;;;;2.25;1.40;;;21.80;33.70;;;;;;5094981;28;20040;-78
2022/03/27 07:51:36;;;;;;;1.55;1.20;;;21.80;33.70;;;;;;5076825;28;20055;-78
2022/03/27 07:54:02;;;;;;;1.92;1.42;;;21.80;33.60;;;;;;5060017;28;20083;-78
2022/03/27 07:56:29;;;;;;;1.50;1.40;;;21.80;33.60;;;;;;5075720;28;20568;-78
2022/03/27 07:58:55;;;;;;;1.50;1.40;;;21.90;33.60;;;;;;5094935;28;20048;-78
2022/03/27 08:01:22;;;;;;;1.33;1.23;;;21.90;33.50;;;;;;5094855;28;20048;-79
2022/03/27 08:03:56;;;;;;;1.65;1.42;;;21.90;33.50;;;;;;5077071;28;20048;-78
2022/03/27 08:06:22;;;;;;;1.48;1.30;;;21.90;33.50;;;;;;5094820;28;20055;-78
2022/03/27 08:08:48;;;;;;;2.15;1.50;;;22.00;33.40;;;;;;5094565;28;20500;-78
2022/03/27 08:11:15;;;;;;;1.45;1.35;;;22.00;33.40;;;;;;5094577;28;20136;-78
2022/03/27 08:13:40;;;;;;;1.50;1.40;;;22.10;33.40;;;;;;5074954;28;20124;-78
2022/03/27 08:16:06;;;;;;;1.83;1.42;;;22.00;33.30;;;;;;5059415;28;20142;-78
2022/03/27 08:18:33;;;;;;;2.08;1.40;;;22.10;33.30;;;;;;5094365;28;20083;-78
2022/03/27 08:20:58;;;;;;;2.50;1.48;;;22.10;33.20;;;;;;5076218;28;20055;-78
2022/03/27 08:23:25;;;;;;;1.75;1.63;;;22.20;33.20;;;;;;5076613;28;20056;-78
2022/03/27 08:28:35;;;;;;;1.48;1.38;;;22.10;33.20;;;;;;5094574;28;20055;-78
2022/03/27 08:31:02;;;;;;;1.55;1.38;;;22.20;33.20;;;;;;5094240;28;20408;-78
2022/03/27 08:33:28;;;;;;;1.50;1.40;;;22.20;33.20;;;;;;5094271;28;20075;-78
2022/03/27 08:35:57;;;;;;;1.40;1.30;;;22.10;33.20;;;;;;5094160;28;20056;-79
2022/03/27 08:38:24;;;;;;;1.35;1.20;;;22.10;33.20;;;;;;5094154;28;20446;-79
2022/03/27 08:40:54;;;;;;;2.05;1.23;;;22.10;33.30;;;;;;5094100;28;20159;-78
2022/03/27 08:43:20;;;;;;;1.65;1.45;;;22.00;33.30;;;;;;5094092;28;20142;-78
2022/03/27 08:45:45;;;;;;;1.73;1.35;;;22.10;33.30;;;;;;5093876;28;20500;-78
2022/03/27 08:48:12;;;;;;;1.30;1.20;;;22.00;33.30;;;;;;5058744;28;20146;-78
2022/03/27 08:51:04;;;;;;;1.45;1.35;;;22.10;33.40;;;;;;5094036;28;20051;-78
2022/03/27 08:53:42;;;;;;;1.33;1.17;;;22.00;33.40;;;;;;5075653;28;20056;-78
2022/03/27 08:56:07;;;;;;;1.30;1.20;;;21.90;33.40;;;;;;5093668;28;20051;-78
2022/03/27 08:58:37;;;;;;;1.80;1.30;;;22.00;33.60;;;;;;5074733;28;20420;-79
2022/03/27 09:01:06;;;;;;;2.15;1.60;;;21.90;33.50;;;;;;5076228;28;20139;-78
2022/03/27 09:03:32;;;;;;;2.15;1.48;;;21.90;33.50;;;;;;5093764;28;20130;-78
2022/03/27 09:06:00;;;;;;;1.48;1.38;;;21.90;33.50;;;;;;5093848;28;20460;-78
2022/03/27 09:08:26;;;;;;;1.50;1.40;;;21.90;33.50;;;;;;5093714;28;20062;-78
2022/03/27 09:10:52;;;;;;;1.45;1.35;;;21.80;33.60;;;;;;5075430;28;20055;-78
2022/03/27 09:13:19;;;;;;;2.10;1.40;;;21.80;34.20;;;;;;5093530;28;20147;-78
2022/03/27 09:15:57;;;;;;;1.85;1.50;;;21.80;33.70;;;;;;5093615;28;20048;-78
2022/03/27 09:18:25;;;;;;;1.88;1.40;;;21.80;33.80;;;;;;5093471;28;20055;-78
2022/03/27 09:20:52;;;;;;;1.52;1.35;;;21.70;33.70;;;;;;5093505;28;20248;-78
2022/03/27 09:23:30;;;;;;;1.52;1.42;;;21.70;33.70;;;;;;5075138;28;20044;-78
2022/03/27 09:25:58;;;;;;;1.77;1.45;;;21.70;33.80;;;;;;5075330;28;20055;-78
2022/03/27 09:28:32;;;;;;;1.98;1.50;;;21.70;33.80;;;;;;5093225;28;20100;-78
2022/03/27 09:31:05;;;;;;;1.80;1.30;;;21.70;33.80;;;;;;5093374;28;20241;-78
2022/03/27 09:33:46;;;;;;;1.58;1.42;;;21.70;33.80;;;;;;5093326;28;20048;-78
2022/03/27 09:36:13;;;;;;;1.40;1.30;;;21.70;33.90;;;;;;5093571;28;20074;-78
2022/03/27 09:38:39;;;;;;;1.55;1.40;;;21.70;33.80;;;;;;5074646;28;20420;-78
2022/03/27 09:41:07;;;;;;;2.47;1.40;;;21.70;33.80;;;;;;5075091;28;20589;-78
2022/03/27 09:43:34;;;;;;;2.42;1.63;;;21.70;34.50;;;;;;5075557;28;20104;-78
2022/03/27 09:46:03;;;;;;;2.30;1.38;;;21.60;33.90;;;;;;5074800;28;20450;-78
2022/03/27 09:48:29;;;;;;;1.67;1.40;;;21.60;33.90;;;;;;5074815;28;20533;-78
2022/03/27 09:51:00;;;;;;;1.25;1.15;;;21.60;33.90;;;;;;5074847;28;20044;-78
2022/03/27 09:53:35;;;;;;;1.65;1.45;;;21.60;33.90;;;;;;5093078;28;20555;-78
2022/03/27 09:56:01;;;;;;;1.70;1.20;;;21.60;34.00;;;;;;5058002;28;20059;-78
2022/03/27 09:58:42;;;;;;;1.92;1.50;;;21.60;33.90;;;;;;5058108;28;20403;-78
2022/03/27 10:01:11;;;;;;;2.60;1.52;;;21.60;33.90;;;;;;5092967;28;20051;-78
2022/03/27 10:03:58;;;;;;;1.45;1.33;;;21.60;33.90;;;;;;5055860;28;20079;-78
2022/03/27 10:06:32;;;;;;;1.67;1.40;;;21.60;34.00;;;;;;5092901;28;20048;-78
2022/03/27 10:08:59;;;;;;;1.30;1.15;;;21.60;33.90;;;;;;5072935;28;20052;-78
2022/03/27 10:11:25;;;;;;;1.45;1.23;;;21.60;34.00;;;;;;5092657;28;20044;-78
2022/03/27 10:13:55;;;;;;;1.65;1.40;;;21.60;34.00;;;;;;5092713;28;20048;-78
2022/03/27 10:16:24;;;;;;;1.42;1.33;;;21.60;34.00;;;;;;5092664;28;20052;-78
2022/03/27 10:18:59;;;;;;;1.42;1.27;;;21.60;34.50;;;;;;5092327;28;21269;-78
2022/03/27 10:21:26;;;;;;;1.63;1.42;;;21.60;34.00;;;;;;5092979;28;20052;-78
2022/03/27 10:24:13;;;;;;;2.25;1.65;;;21.60;34.00;;;;;;5092626;28;20048;-78
2022/03/27 10:26:45;;;;;;;1.83;1.60;;;21.60;34.00;;;;;;5074290;28;20138;-78
2022/03/27 10:29:13;;;;;;;1.67;1.50;;;21.60;34.00;;;;;;5074177;28;20052;-78
2022/03/27 10:31:38;;;;;;;2.00;1.50;;;21.60;34.00;;;;;;5074833;28;20102;-78
2022/03/27 10:34:07;;;;;;;1.42;1.33;;;21.60;34.00;;;;;;5074204;28;20500;-78
2022/03/27 10:36:46;;;;;;;1.75;1.42;;;21.60;34.00;;;;;;5092269;28;20044;-77
2022/03/27 10:39:43;;;;;;;1.80;1.65;;;21.60;34.00;;;;;;5074157;28;20101;-77
2022/03/27 10:42:19;;;;;;;1.95;1.45;;;21.60;34.00;;;;;;5056888;28;20080;-78
2022/03/27 10:45:00;;;;;;;1.70;1.30;;;21.60;34.00;;;;;;5092483;28;20056;-79
2022/03/27 10:47:28;;;;;;;1.53;1.43;;;21.60;34.00;;;;;;5092524;28;20134;-79
2022/03/27 10:50:08;;;;;;;1.80;1.30;;;21.60;34.00;;;;;;5057356;28;20389;-78
2022/03/27 10:52:36;;;;;;;1.73;1.27;;;21.60;34.10;;;;;;5089356;28;20422;-78
2022/03/27 10:55:15;;;;;;;1.65;1.27;;;21.60;34.00;;;;;;5092542;28;20472;-79
2022/03/27 10:57:45;;;;;;;1.90;1.33;;;21.60;34.00;;;;;;5092213;28;20129;-79
2022/03/27 11:00:12;;;;;;;1.77;1.40;;;21.60;34.00;;;;;;5057337;28;20055;-79
2022/03/27 11:02:45;;;;;;;1.58;1.20;;;21.50;34.00;;;;;;5092125;28;20048;-79
2022/03/27 11:05:36;;;;;;;1.55;1.40;;;21.60;34.00;;;;;;5092082;28;20450;-79
2022/03/27 11:08:16;;;;;;;1.58;1.33;;;21.60;34.00;;;;;;5091689;28;20040;-78
2022/03/27 11:10:55;;;;;;;1.10;1.00;;;21.50;34.00;;;;;;5073331;28;20064;-79
2022/03/27 11:13:27;;;;;;;1.73;1.50;;;21.50;34.00;;;;;;5072733;28;20059;-78
2022/03/27 11:16:01;;;;;;;1.50;1.40;;;21.60;34.10;;;;;;5091869;28;20204;-79
2022/03/27 11:18:43;;;;;;;1.67;1.50;;;21.60;34.10;;;;;;5073651;28;20101;-78
2022/03/27 11:21:27;;;;;;;1.50;1.40;;;21.50;34.00;;;;;;5091922;28;20048;-79
2022/03/27 11:23:55;;;;;;;1.90;1.50;;;21.60;34.00;;;;;;5077509;28;20059;-79
2022/03/27 11:26:20;;;;;;;1.85;1.45;;;21.60;34.00;;;;;;5077272;28;20405;-79
2022/03/27 11:28:53;;;;;;;2.13;1.73;;;21.50;34.00;;;;;;5095224;28;20157;-79
2022/03/27 11:31:31;;;;;;;1.48;1.33;;;21.60;34.10;;;;;;5095266;28;20051;-78
2022/03/27 11:34:08;;;;;;;2.28;1.70;;;21.50;34.00;;;;;;5095490;28;20059;-78
2022/03/27 11:36:35;;;;;;;2.38;1.58;;;21.50;34.50;;;;;;5090923;28;20047;-78
2022/03/27 11:39:11;;;;;;;1.30;1.20;;;21.50;34.00;;;;;;5095408;28;20082;-78
2022/03/27 11:41:43;;;;;;;2.28;1.50;;;21.50;34.00;;;;;;5095208;28;20059;-78
2022/03/27 11:44:17;;;;;;;2.28;1.70;;;21.50;34.00;;;;;;5095184;28;20434;-78
2022/03/27 11:46:51;;;;;;;1.77;1.27;;;21.50;34.00;;;;;;5095191;28;20093;-78
2022/03/27 11:49:18;;;;;;;1.60;1.50;;;21.60;34.00;;;;;;5094928;28;20056;-78
2022/03/27 11:51:44;;;;;;;1.50;1.40;;;21.50;34.00;;;;;;5094952;28;20556;-79
2022/03/27 11:54:21;;;;;;;2.00;1.50;;;21.50;34.00;;;;;;5060411;28;20048;-79
2022/03/27 11:56:58;;;;;;;1.27;1.17;;;21.50;34.00;;;;;;5094532;28;20067;-79
2022/03/27 11:59:27;;;;;;;2.15;1.40;;;21.60;34.10;;;;;;5058333;28;20052;-79
2022/03/27 12:01:56;;;;;;;2.13;1.67;;;21.50;34.00;;;;;;5094830;28;20054;-76
2022/03/27 12:04:21;;;;;;;2.22;1.38;;;21.50;34.00;;;;;;5094678;28;20126;-76
2022/03/27 12:06:58;;;;;;;1.35;1.25;;;21.50;34.00;;;;;;5076478;28;20151;-76
2022/03/27 12:09:27;;;;;;;3.20;1.58;;;21.50;34.10;;;;;;5094653;28;20048;-76
2022/03/27 12:12:13;;;;;;;1.70;1.30;;;21.50;34.10;;;;;;5094582;28;20056;-76
2022/03/27 12:14:58;;;;;;;1.50;1.30;;;21.50;34.00;;;;;;5094609;28;20048;-76
2022/03/27 12:17:25;;;;;;;1.42;1.33;;;21.50;34.00;;;;;;5094374;28;20054;-76
2022/03/27 12:20:00;;;;;;;1.98;1.58;;;21.50;34.10;;;;;;5076002;28;20083;-76
2022/03/27 12:22:36;;;;;;;1.45;1.30;;;21.50;34.10;;;;;;5094525;28;20054;-79
2022/03/27 12:25:04;;;;;;;2.20;1.50;;;21.50;34.10;;;;;;5094628;28;20061;-76
2022/03/27 12:30:14;;;;;;;1.67;1.55;;;21.50;34.10;;;;;;5094353;28;20056;-76
2022/03/27 12:32:40;;;;;;;1.73;1.30;;;21.50;34.10;;;;;;5073927;28;20055;-79
2022/03/27 12:35:06;;;;;;;1.48;1.35;;;21.50;34.20;;;;;;5094478;28;20087;-79
2022/03/27 12:37:35;;;;;;;1.40;1.27;;;21.50;34.20;;;;;;5074793;28;20484;-79
2022/03/27 12:40:05;;;;;;;1.40;1.30;;;21.50;34.10;;;;;;5075980;28;20048;-79
2022/03/27 12:42:45;;;;;;;1.58;1.42;;;21.50;34.10;;;;;;5076003;28;20500;-77
2022/03/27 12:45:21;;;;;;;1.65;1.48;;;21.50;34.10;;;;;;5094128;28;20123;-79
2022/03/27 12:47:51;;;;;;;2.42;1.67;;;21.50;34.10;;;;;;5075739;28;20048;-79
2022/03/27 12:50:25;;;;;;;1.60;1.30;;;21.50;34.20;;;;;;5094107;28;20080;-79
2022/03/27 12:53:00;;;;;;;2.17;1.60;;;21.50;34.10;;;;;;5094322;28;20058;-79
2022/03/27 12:55:39;;;;;;;1.50;1.20;;;21.40;34.10;;;;;;5093853;28;20052;-79
2022/03/27 12:58:05;;;;;;;1.77;1.67;;;21.50;34.20;;;;;;5093452;28;20052;-79
2022/03/27 13:00:34;;;;;;;1.50;1.40;;;21.40;34.10;;;;;;5093911;28;20056;-79
2022/03/27 13:03:19;;;;;;;1.23;1.05;;;21.40;34.10;;;;;;5073743;28;20053;-79
2022/03/27 13:05:57;;;;;;;2.28;1.50;;;21.40;34.20;;;;;;5093785;28;20044;-79
2022/03/27 13:08:40;;;;;;;1.83;1.70;;;21.40;34.20;;;;;;5074514;28;20090;-79